createdAt,value
2022-09-23T00:01:07.742Z,80.39
2022-09-23T00:03:37.287Z,80.43
2022-09-23T00:06:07.283Z,80.61
2022-09-23T00:08:35.177Z,80.82
2022-09-23T00:11:17.195Z,80.73
2022-09-23T00:13:46.386Z,80.79
2022-09-23T00:16:16.083Z,80.88
2022-09-23T00:18:43.588Z,81.07
2022-09-23T00:21:12.734Z,80.88
2022-09-23T00:23:40.793Z,80.63
2022-09-23T00:26:09.694Z,80.56
2022-09-23T00:28:37.134Z,80.62
2022-09-23T00:31:12.542Z,81.05
2022-09-23T00:33:40.892Z,81.14
2022-09-23T00:36:11.565Z,80.86
2022-09-23T00:38:39.294Z,81.18
2022-09-23T00:41:06.555Z,81.15
2022-09-23T00:43:54.542Z,80.94
2022-09-23T00:46:36.389Z,81.00
2022-09-23T00:49:07.499Z,80.82
2022-09-23T00:51:39.125Z,81.06
2022-09-23T00:54:06.769Z,80.73
2022-09-23T00:56:34.839Z,80.96
2022-09-23T00:59:02.197Z,81.45
2022-09-23T01:01:29.946Z,81.13
2022-09-23T01:03:57.687Z,80.92
2022-09-23T01:06:25.206Z,81.00
2022-09-23T01:08:52.844Z,81.07
2022-09-23T01:11:35.136Z,81.50
2022-09-23T01:14:07.986Z,81.19
2022-09-23T01:17:05.892Z,80.89
2022-09-23T01:19:59.085Z,81.23
2022-09-23T01:22:54.975Z,81.04
2022-09-23T01:25:47.319Z,81.23
2022-09-23T01:28:33.488Z,81.15
2022-09-23T01:31:12.712Z,81.27
2022-09-23T01:34:02.746Z,80.82
2022-09-23T01:36:43.315Z,81.31
2022-09-23T01:39:10.832Z,81.21
2022-09-23T01:42:17.383Z,80.75
2022-09-23T01:44:51.717Z,81.14
2022-09-23T01:47:25.644Z,81.17
2022-09-23T01:50:32.953Z,81.01
2022-09-23T01:53:05.113Z,81.15
2022-09-23T01:55:34.547Z,81.18
2022-09-23T01:58:12.425Z,81.11
2022-09-23T02:00:43.834Z,81.06
2022-09-23T02:03:50.125Z,81.49
2022-09-23T02:06:22.323Z,81.42
2022-09-23T02:09:00.399Z,81.32
2022-09-23T02:11:27.823Z,81.33
2022-09-23T02:13:59.245Z,81.19
2022-09-23T02:16:47.723Z,81.39
2022-09-23T02:19:37.784Z,81.13
2022-09-23T02:22:23.555Z,81.04
2022-09-23T02:24:50.775Z,81.02
2022-09-23T02:27:26.186Z,81.06
2022-09-23T02:30:12.886Z,81.48
2022-09-23T02:32:58.410Z,81.12
2022-09-23T02:35:33.206Z,81.21
2022-09-23T02:38:21.886Z,80.93
2022-09-23T02:40:54.585Z,80.87
2022-09-23T02:43:52.430Z,81.17
2022-09-23T02:46:20.486Z,81.04
2022-09-23T02:49:23.537Z,80.80
2022-09-23T02:51:51.165Z,81.54
2022-09-23T02:54:23.266Z,81.20
2022-09-23T02:56:50.377Z,80.90
2022-09-23T02:59:19.594Z,81.48
2022-09-23T03:02:03.760Z,81.03
2022-09-23T03:05:08.416Z,81.48
2022-09-23T03:08:13.014Z,81.24
2022-09-23T03:10:53.704Z,81.25
2022-09-23T03:13:39.652Z,81.41
2022-09-23T03:16:15.149Z,81.22
2022-09-23T03:18:52.554Z,81.52
2022-09-23T03:21:45.068Z,81.40
2022-09-23T03:24:14.481Z,81.35
2022-09-23T03:26:44.648Z,81.36
2022-09-23T03:29:12.195Z,81.35
2022-09-23T03:31:41.209Z,81.27
2022-09-23T03:34:23.415Z,81.33
2022-09-23T03:37:01.997Z,81.28
2022-09-23T03:39:34.514Z,81.43
2022-09-23T03:42:12.842Z,81.60
2022-09-23T03:44:46.231Z,81.23
2022-09-23T03:47:14.910Z,81.34
2022-09-23T03:49:48.509Z,81.50
2022-09-23T03:52:20.193Z,81.39
2022-09-23T03:54:47.646Z,81.35
2022-09-23T03:57:14.904Z,81.36
2022-09-23T03:59:41.831Z,81.40
2022-09-23T04:02:09.505Z,81.45
2022-09-23T04:04:37.625Z,81.61
2022-09-23T04:07:05.055Z,81.63
2022-09-23T04:09:32.295Z,81.61
2022-09-23T04:11:59.244Z,81.46
2022-09-23T04:14:26.174Z,81.46
2022-09-23T04:16:53.175Z,81.43
2022-09-23T04:19:20.208Z,81.71
2022-09-23T04:21:47.318Z,81.44
2022-09-23T04:24:14.954Z,81.49
2022-09-23T04:26:42.124Z,81.52
2022-09-23T04:29:11.084Z,81.48
2022-09-23T04:31:38.327Z,81.59
2022-09-23T04:34:05.426Z,81.74
2022-09-23T04:36:32.979Z,81.54
2022-09-23T04:38:59.911Z,81.57
2022-09-23T04:41:27.091Z,81.51
2022-09-23T04:43:54.052Z,81.61
2022-09-23T04:46:21.057Z,82.06
2022-09-23T04:48:47.994Z,81.45
2022-09-23T04:51:20.965Z,81.66
2022-09-23T04:53:49.874Z,81.40
2022-09-23T04:56:22.504Z,81.84
2022-09-23T04:58:49.724Z,82.04
2022-09-23T05:01:16.687Z,81.92
2022-09-23T05:03:44.579Z,81.63
2022-09-23T05:06:14.008Z,81.65
2022-09-23T05:08:46.985Z,81.87
2022-09-23T05:11:14.017Z,81.51
2022-09-23T05:13:40.930Z,81.69
2022-09-23T05:16:12.128Z,81.02
2022-09-23T05:18:43.993Z,81.23
2022-09-23T05:21:12.247Z,81.66
2022-09-23T05:23:40.706Z,81.00
2022-09-23T05:26:10.166Z,81.81
2022-09-23T05:28:39.414Z,81.52
2022-09-23T05:31:20.542Z,81.72
2022-09-23T05:33:57.442Z,81.55
2022-09-23T05:36:25.558Z,81.54
2022-09-23T05:38:52.725Z,81.48
2022-09-23T05:41:23.227Z,81.80
2022-09-23T05:43:54.233Z,81.54
2022-09-23T05:46:28.126Z,81.46
2022-09-23T05:49:02.615Z,81.72
2022-09-23T05:51:31.513Z,81.72
2022-09-23T05:53:59.823Z,81.35
2022-09-23T05:56:28.153Z,81.48
2022-09-23T05:58:57.641Z,81.36
2022-09-23T06:01:27.161Z,81.26
2022-09-23T06:03:55.915Z,81.25
2022-09-23T06:06:28.981Z,81.31
2022-09-23T06:08:56.542Z,81.46
2022-09-23T06:11:23.872Z,81.26
2022-09-23T06:13:55.043Z,81.03
2022-09-23T06:16:22.320Z,81.42
2022-09-23T06:18:49.762Z,81.30
2022-09-23T06:21:17.739Z,80.91
2022-09-23T06:23:45.791Z,81.12
2022-09-23T06:26:14.729Z,81.30
2022-09-23T06:28:43.170Z,80.88
2022-09-23T06:31:15.521Z,80.76
2022-09-23T06:33:46.122Z,80.73
2022-09-23T06:36:23.331Z,81.34
2022-09-23T06:39:02.422Z,80.92
2022-09-23T06:41:30.142Z,80.98
2022-09-23T06:43:58.508Z,80.79
2022-09-23T06:46:25.739Z,80.60
2022-09-23T06:48:52.840Z,80.54
2022-09-23T06:51:19.997Z,80.35
2022-09-23T06:53:50.572Z,80.77
2022-09-23T06:56:19.873Z,80.11
2022-09-23T06:58:47.333Z,80.17
2022-09-23T07:01:17.274Z,80.40
2022-09-23T07:03:45.875Z,79.98
2022-09-23T07:06:12.992Z,79.86
2022-09-23T07:08:43.433Z,80.10
2022-09-23T07:11:12.452Z,79.81
2022-09-23T07:13:41.276Z,79.52
2022-09-23T07:16:09.211Z,79.63
2022-09-23T07:18:37.699Z,79.53
2022-09-23T07:21:16.326Z,79.10
2022-09-23T07:23:44.547Z,79.10
2022-09-23T07:26:11.822Z,78.75
2022-09-23T07:28:39.384Z,78.60
2022-09-23T07:31:08.632Z,78.44
2022-09-23T07:33:37.206Z,78.42
2022-09-23T07:36:09.242Z,78.23
2022-09-23T07:38:40.398Z,77.86
2022-09-23T07:41:11.923Z,77.67
2022-09-23T07:43:41.002Z,77.54
2022-09-23T07:46:11.154Z,77.11
2022-09-23T07:48:38.622Z,77.09
2022-09-23T07:51:36.035Z,76.66
2022-09-23T07:54:08.690Z,76.66
2022-09-23T07:56:37.301Z,76.51
2022-09-23T07:59:09.384Z,76.02
2022-09-23T08:01:41.566Z,76.02
2022-09-23T08:04:12.582Z,75.72
2022-09-23T08:06:50.515Z,75.56
2022-09-23T08:09:19.031Z,75.25
2022-09-23T08:11:46.592Z,74.89
2022-09-23T08:14:15.501Z,74.83
2022-09-23T08:16:44.892Z,74.65
2022-09-23T08:19:12.772Z,74.23
2022-09-23T08:21:40.534Z,73.91
2022-09-23T08:24:08.793Z,73.93
2022-09-23T08:26:35.803Z,73.82
2022-09-23T08:29:02.752Z,73.55
2022-09-23T08:31:29.960Z,73.29
2022-09-23T08:33:58.114Z,73.27
2022-09-23T08:36:26.115Z,72.76
2022-09-23T08:38:53.596Z,72.69
2022-09-23T08:41:39.392Z,72.43
2022-09-23T08:44:19.433Z,72.21
2022-09-23T08:47:10.688Z,71.78
2022-09-23T08:50:00.881Z,71.40
2022-09-23T08:52:47.274Z,71.14
2022-09-23T08:55:15.511Z,70.55
2022-09-23T08:58:25.976Z,70.33
2022-09-23T09:01:29.572Z,69.93
2022-09-23T09:03:58.961Z,69.70
2022-09-23T09:06:52.925Z,69.43
2022-09-23T09:09:30.902Z,69.02
2022-09-23T09:12:25.753Z,68.66
2022-09-23T09:15:13.977Z,68.42
2022-09-23T09:18:06.556Z,68.08
2022-09-23T09:20:59.113Z,67.72
2022-09-23T09:24:04.377Z,67.49
2022-09-23T09:26:35.395Z,66.91
2022-09-23T09:29:34.302Z,66.66
2022-09-23T09:32:15.192Z,66.28
2022-09-23T09:34:51.681Z,65.93
2022-09-23T09:37:21.112Z,65.55
2022-09-23T09:39:48.062Z,65.45
2022-09-23T09:42:27.642Z,65.17
2022-09-23T09:44:59.293Z,64.89
2022-09-23T09:47:32.602Z,64.66
2022-09-23T09:50:11.949Z,64.37
2022-09-23T09:52:43.129Z,64.29
2022-09-23T09:55:12.907Z,64.00
2022-09-23T09:57:49.911Z,63.74
2022-09-23T10:00:39.133Z,63.74
2022-09-23T10:03:23.478Z,63.62
2022-09-23T10:05:52.401Z,63.43
2022-09-23T10:08:35.115Z,63.04
2022-09-23T10:11:11.876Z,62.97
2022-09-23T10:13:39.130Z,62.79
2022-09-23T10:16:06.755Z,62.60
2022-09-23T10:18:37.621Z,62.42
2022-09-23T10:21:10.841Z,62.33
2022-09-23T10:23:44.381Z,62.08
2022-09-23T10:26:13.011Z,61.84
2022-09-23T10:28:50.402Z,61.69
2022-09-23T10:31:26.712Z,61.43
2022-09-23T10:33:57.484Z,61.14
2022-09-23T10:36:24.982Z,61.09
2022-09-23T10:39:23.116Z,60.87
2022-09-23T10:42:19.359Z,60.70
2022-09-23T10:45:31.600Z,60.50
2022-09-23T10:48:01.180Z,60.26
2022-09-23T10:50:35.007Z,60.11
2022-09-23T10:53:15.442Z,59.87
2022-09-23T10:56:01.121Z,59.71
2022-09-23T10:58:33.543Z,59.56
2022-09-23T11:01:26.992Z,59.51
2022-09-23T11:04:23.957Z,59.30
2022-09-23T11:07:09.737Z,59.17
2022-09-23T11:10:28.954Z,58.95
2022-09-23T11:13:31.980Z,58.91
2022-09-23T11:16:14.467Z,58.57
2022-09-23T11:18:49.885Z,58.58
2022-09-23T11:21:28.639Z,58.31
2022-09-23T11:24:18.366Z,58.25
2022-09-23T11:27:36.255Z,58.08
2022-09-23T11:30:13.243Z,57.91
2022-09-23T11:32:48.278Z,57.66
2022-09-23T11:35:20.770Z,57.53
2022-09-23T11:37:53.248Z,57.18
2022-09-23T11:40:24.138Z,56.91
2022-09-23T11:43:02.529Z,56.68
2022-09-23T11:45:36.791Z,56.46
2022-09-23T11:48:09.901Z,56.48
2022-09-23T11:51:00.788Z,56.17
2022-09-23T11:53:58.781Z,56.08
2022-09-23T11:56:38.001Z,55.89
2022-09-23T11:59:12.101Z,55.67
2022-09-23T12:01:45.977Z,55.58
2022-09-23T12:04:34.386Z,55.32
2022-09-23T12:07:06.304Z,55.27
2022-09-23T12:09:57.141Z,54.99
2022-09-23T12:12:59.516Z,55.06
2022-09-23T12:15:42.265Z,54.99
2022-09-23T12:18:27.706Z,54.53
2022-09-23T12:21:49.148Z,54.18
2022-09-23T12:24:56.467Z,54.06
2022-09-23T12:27:25.296Z,53.91
2022-09-23T12:29:57.035Z,53.85
2022-09-23T12:32:25.169Z,53.50
2022-09-23T12:34:53.589Z,53.52
2022-09-23T12:37:34.786Z,53.18
2022-09-23T12:40:30.359Z,53.11
2022-09-23T12:42:59.291Z,53.08
2022-09-23T12:45:32.712Z,52.74
2022-09-23T12:48:03.220Z,52.72
2022-09-23T12:50:51.138Z,52.67
2022-09-23T12:53:54.279Z,52.46
2022-09-23T12:56:30.012Z,52.35
2022-09-23T12:59:21.209Z,52.15
2022-09-23T13:01:48.278Z,51.96
2022-09-23T13:04:52.588Z,52.04
2022-09-23T13:07:26.021Z,51.79
2022-09-23T13:09:58.992Z,51.43
2022-09-23T13:12:31.234Z,51.32
2022-09-23T13:15:03.567Z,51.27
2022-09-23T13:17:38.370Z,51.10
2022-09-23T13:20:19.967Z,51.03
2022-09-23T13:22:49.930Z,51.09
2022-09-23T13:25:20.720Z,50.74
2022-09-23T13:28:00.814Z,50.66
2022-09-23T13:30:28.452Z,50.79
2022-09-23T13:33:17.472Z,50.63
2022-09-23T13:35:48.648Z,50.49
2022-09-23T13:38:26.579Z,50.59
2022-09-23T13:41:01.201Z,50.54
2022-09-23T13:43:31.694Z,50.58
2022-09-23T13:45:59.445Z,50.48
2022-09-23T13:48:28.226Z,50.36
2022-09-23T13:50:56.182Z,50.37
2022-09-23T13:53:30.548Z,50.31
2022-09-23T13:56:16.115Z,50.22
2022-09-23T13:58:43.627Z,50.20
2022-09-23T14:01:34.926Z,50.31
2022-09-23T14:04:04.896Z,50.25
2022-09-23T14:06:32.237Z,50.36
2022-09-23T14:09:01.566Z,50.24
2022-09-23T14:11:35.641Z,50.30
2022-09-23T14:14:07.370Z,50.24
2022-09-23T14:16:38.177Z,50.40
2022-09-23T14:19:06.723Z,50.46
2022-09-23T14:21:35.789Z,50.44
2022-09-23T14:24:32.319Z,50.57
2022-09-23T14:27:32.109Z,50.66
2022-09-23T14:30:00.400Z,50.64
2022-09-23T14:32:29.518Z,50.79
2022-09-23T14:35:06.720Z,50.82
2022-09-23T14:37:54.966Z,51.00
2022-09-23T14:40:36.376Z,51.22
2022-09-23T14:43:23.281Z,51.43
2022-09-23T14:45:53.492Z,51.39
2022-09-23T14:48:28.984Z,51.39
2022-09-23T14:51:01.169Z,51.45
2022-09-23T14:53:35.557Z,51.50
2022-09-23T14:56:11.080Z,51.96
2022-09-23T14:58:57.715Z,52.32
2022-09-23T15:01:31.217Z,52.43
2022-09-23T15:04:10.568Z,52.71
2022-09-23T15:06:38.978Z,53.12
2022-09-23T15:09:07.502Z,53.51
2022-09-23T15:11:36.195Z,53.79
2022-09-23T15:14:33.088Z,53.95
2022-09-23T15:16:53.243Z,53.86
2022-09-23T15:19:20.719Z,54.13
2022-09-23T15:21:51.807Z,54.16
2022-09-23T15:24:41.609Z,54.53
2022-09-23T15:27:28.785Z,54.70
2022-09-23T15:29:59.226Z,54.84
2022-09-23T15:32:26.217Z,55.38
2022-09-23T15:34:53.153Z,55.44
2022-09-23T15:37:20.137Z,55.89
2022-09-23T15:39:49.200Z,55.84
2022-09-23T15:42:18.274Z,55.95
2022-09-23T15:44:45.187Z,56.35
2022-09-23T15:47:17.251Z,56.79
2022-09-23T15:49:45.962Z,56.90
2022-09-23T15:52:15.282Z,57.51
2022-09-23T15:54:43.850Z,57.58
2022-09-23T15:57:11.248Z,57.69
2022-09-23T15:59:38.236Z,57.86
2022-09-23T16:02:13.524Z,58.07
2022-09-23T16:04:40.646Z,58.60
2022-09-23T16:07:12.436Z,58.80
2022-09-23T16:09:39.384Z,59.07
2022-09-23T16:12:09.743Z,58.98
2022-09-23T16:14:36.770Z,59.06
2022-09-23T16:17:05.203Z,59.52
2022-09-23T16:19:34.258Z,59.65
2022-09-23T16:22:01.285Z,59.75
2022-09-23T16:24:29.278Z,60.12
2022-09-23T16:26:59.946Z,60.06
2022-09-23T16:29:27.665Z,60.35
2022-09-23T16:31:55.752Z,60.88
2022-09-23T16:34:23.004Z,60.90
2022-09-23T16:36:50.190Z,61.32
2022-09-23T16:39:18.375Z,61.63
2022-09-23T16:41:45.336Z,61.66
2022-09-23T16:44:12.733Z,61.86
2022-09-23T16:46:42.839Z,62.48
2022-09-23T16:49:13.598Z,62.35
2022-09-23T16:51:40.632Z,62.89
2022-09-23T16:54:12.193Z,63.11
2022-09-23T16:56:45.077Z,63.36
2022-09-23T16:59:13.375Z,63.66
2022-09-23T17:01:58.928Z,63.82
2022-09-23T17:04:27.672Z,64.24
2022-09-23T17:06:56.043Z,64.47
2022-09-23T17:09:26.307Z,64.90
2022-09-23T17:12:16.649Z,64.93
2022-09-23T17:14:43.814Z,65.48
2022-09-23T17:17:10.816Z,65.64
2022-09-23T17:19:38.260Z,65.90
2022-09-23T17:22:05.279Z,66.24
2022-09-23T17:24:32.205Z,66.54
2022-09-23T17:26:59.212Z,66.77
2022-09-23T17:29:27.044Z,66.88
2022-09-23T17:31:54.408Z,67.13
2022-09-23T17:34:21.350Z,67.34
2022-09-23T17:36:48.400Z,67.57
2022-09-23T17:39:15.386Z,67.61
2022-09-23T17:41:42.299Z,67.83
2022-09-23T17:44:11.447Z,68.06
2022-09-23T17:46:38.366Z,68.38
2022-09-23T17:49:06.857Z,68.39
2022-09-23T17:51:33.985Z,68.58
2022-09-23T17:54:01.624Z,68.69
2022-09-23T17:56:30.784Z,68.83
2022-09-23T17:59:02.041Z,69.06
2022-09-23T18:01:29.584Z,69.34
2022-09-23T18:04:01.853Z,69.17
2022-09-23T18:06:35.866Z,69.48
2022-09-23T18:09:06.293Z,69.77
2022-09-23T18:11:40.783Z,69.63
2022-09-23T18:14:16.496Z,69.89
2022-09-23T18:16:48.212Z,70.30
2022-09-23T18:19:22.971Z,70.15
2022-09-23T18:21:56.533Z,70.20
2022-09-23T18:24:33.171Z,70.25
2022-09-23T18:27:01.586Z,70.56
2022-09-23T18:29:28.740Z,70.45
2022-09-23T18:31:56.408Z,71.02
2022-09-23T18:34:23.720Z,70.78
2022-09-23T18:36:50.712Z,70.95
2022-09-23T18:39:17.801Z,71.46
2022-09-23T18:41:44.863Z,71.52
2022-09-23T18:44:11.940Z,71.45
2022-09-23T18:46:38.923Z,71.99
2022-09-23T18:49:24.538Z,72.18
2022-09-23T18:51:55.857Z,71.66
2022-09-23T18:54:24.386Z,72.22
2022-09-23T18:56:52.946Z,72.53
2022-09-23T18:59:25.039Z,72.11
2022-09-23T19:01:52.060Z,72.51
2022-09-23T19:04:20.667Z,72.48
2022-09-23T19:06:48.524Z,72.63
2022-09-23T19:09:16.414Z,72.82
2022-09-23T19:11:44.497Z,72.82
2022-09-23T19:14:12.279Z,72.95
2022-09-23T19:16:40.341Z,72.79
2022-09-23T19:19:07.857Z,72.94
2022-09-23T19:21:35.280Z,73.10
2022-09-23T19:24:05.312Z,73.36
2022-09-23T19:26:36.799Z,73.45
2022-09-23T19:29:05.698Z,73.74
2022-09-23T19:31:35.203Z,73.37
2022-09-23T19:34:10.772Z,73.76
2022-09-23T19:36:40.678Z,73.48
2022-09-23T19:39:11.956Z,74.05
2022-09-23T19:41:39.075Z,73.80
2022-09-23T19:44:07.886Z,73.94
2022-09-23T19:46:39.654Z,74.09
2022-09-23T19:49:07.667Z,74.34
2022-09-23T19:51:35.165Z,74.42
2022-09-23T19:54:03.708Z,74.54
2022-09-23T19:56:31.191Z,74.17
2022-09-23T19:58:58.950Z,74.29
2022-09-23T20:01:27.767Z,74.49
2022-09-23T20:03:54.987Z,74.86
2022-09-23T20:06:22.415Z,74.86
2022-09-23T20:08:50.095Z,74.54
2022-09-23T20:11:19.498Z,74.73
2022-09-23T20:13:47.607Z,75.25
2022-09-23T20:16:20.895Z,75.09
2022-09-23T20:18:51.998Z,75.04
2022-09-23T20:21:19.859Z,75.15
2022-09-23T20:23:46.819Z,75.06
2022-09-23T20:26:32.711Z,75.40
2022-09-23T20:29:01.490Z,75.46
2022-09-23T20:31:28.792Z,75.44
2022-09-23T20:34:00.325Z,75.72
2022-09-23T20:36:28.840Z,75.48
2022-09-23T20:38:56.845Z,75.94
2022-09-23T20:41:23.854Z,76.30
2022-09-23T20:43:54.457Z,75.47
2022-09-23T20:46:24.699Z,76.01
2022-09-23T20:48:52.181Z,76.18
2022-09-23T20:51:19.057Z,75.82
2022-09-23T20:53:50.806Z,75.97
2022-09-23T20:56:19.896Z,76.55
2022-09-23T20:58:48.532Z,76.47
2022-09-23T21:01:16.274Z,76.29
2022-09-23T21:03:44.690Z,76.60
2022-09-23T21:06:14.153Z,76.75
2022-09-23T21:08:41.702Z,76.45
2022-09-23T21:11:11.967Z,76.73
2022-09-23T21:13:39.604Z,76.75
2022-09-23T21:16:09.970Z,77.15
2022-09-23T21:18:38.031Z,77.00
2022-09-23T21:21:06.130Z,76.71
2022-09-23T21:23:41.175Z,77.17
2022-09-23T21:26:13.116Z,77.13
2022-09-23T21:28:41.927Z,77.32
2022-09-23T21:31:17.719Z,77.49
2022-09-23T21:33:44.695Z,77.41
2022-09-23T21:36:11.704Z,77.48
2022-09-23T21:38:39.172Z,77.56
2022-09-23T21:41:07.820Z,77.37
2022-09-23T21:43:38.535Z,77.40
2022-09-23T21:46:07.762Z,77.72
2022-09-23T21:48:36.643Z,77.44
2022-09-23T21:51:06.709Z,77.83
2022-09-23T21:53:36.477Z,77.37
2022-09-23T21:56:04.646Z,77.68
2022-09-23T21:58:32.392Z,77.20
2022-09-23T22:00:59.564Z,77.92
2022-09-23T22:03:27.227Z,78.08
2022-09-23T22:06:07.726Z,77.65
2022-09-23T22:08:37.132Z,78.04
2022-09-23T22:11:06.605Z,77.94
2022-09-23T22:13:33.750Z,77.97
2022-09-23T22:16:03.951Z,78.17
2022-09-23T22:18:31.315Z,78.29
2022-09-23T22:20:59.155Z,78.07
2022-09-23T22:23:26.276Z,78.06
2022-09-23T22:26:02.820Z,78.34
2022-09-23T22:28:51.363Z,78.13
2022-09-23T22:31:36.761Z,78.28
2022-09-23T22:34:03.872Z,78.44
2022-09-23T22:36:30.895Z,78.35
2022-09-23T22:39:00.669Z,78.63
2022-09-23T22:41:27.621Z,78.58
2022-09-23T22:43:54.557Z,78.54
2022-09-23T22:46:25.295Z,78.72
2022-09-23T22:48:53.352Z,78.64
2022-09-23T22:51:22.350Z,78.51
2022-09-23T22:53:49.612Z,78.74
2022-09-23T22:56:16.586Z,78.81
2022-09-23T22:58:43.917Z,78.59
2022-09-23T23:01:11.868Z,78.73
2022-09-23T23:03:40.587Z,78.71
2022-09-23T23:06:09.782Z,78.85
2022-09-23T23:08:37.576Z,78.70
2022-09-23T23:11:10.064Z,78.75
2022-09-23T23:13:41.883Z,78.65
2022-09-23T23:16:11.840Z,79.22
2022-09-23T23:18:41.254Z,78.90
2022-09-23T23:21:10.465Z,78.76
2022-09-23T23:23:42.457Z,78.92
2022-09-23T23:26:10.103Z,78.91
2022-09-23T23:28:37.026Z,79.06
2022-09-23T23:31:05.591Z,78.86
2022-09-23T23:33:32.763Z,78.82
2022-09-23T23:35:59.700Z,79.14
2022-09-23T23:38:27.315Z,78.68
2022-09-23T23:40:55.586Z,78.98
2022-09-23T23:43:23.850Z,79.30
2022-09-23T23:45:51.589Z,79.12
2022-09-23T23:48:19.925Z,79.23
2022-09-23T23:50:57.544Z,79.02
2022-09-23T23:53:26.667Z,78.88
2022-09-23T23:55:53.565Z,79.46
2022-09-23T23:58:20.679Z,79.11
